createdAt,value
2019-01-25T00:00:43.314Z,147.00
2019-01-25T00:03:10.896Z,141.92
2019-01-25T00:05:37.545Z,139.60
2019-01-25T00:08:04.259Z,140.18
2019-01-25T00:10:31.099Z,141.65
2019-01-25T00:12:57.540Z,140.10
2019-01-25T00:15:24.110Z,146.93
2019-01-25T00:17:50.520Z,147.33
2019-01-25T00:20:17.041Z,145.57
2019-01-25T00:22:43.586Z,139.27
2019-01-25T00:25:10.337Z,148.82
2019-01-25T00:27:36.877Z,143.15
2019-01-25T00:30:12.166Z,146.10
2019-01-25T00:32:38.628Z,143.65
2019-01-25T00:35:05.570Z,143.50
2019-01-25T00:37:32.008Z,147.40
2019-01-25T00:39:58.541Z,147.27
2019-01-25T00:42:25.205Z,140.30
2019-01-25T00:44:51.723Z,145.77
2019-01-25T00:47:18.173Z,143.53
2019-01-25T00:49:44.836Z,141.67
2019-01-25T00:52:11.259Z,143.30
2019-01-25T00:54:37.805Z,137.77
2019-01-25T00:57:04.362Z,141.27
2019-01-25T00:59:30.968Z,147.22
2019-01-25T01:01:57.477Z,143.10
2019-01-25T01:04:23.935Z,143.90
2019-01-25T01:06:50.547Z,147.60
2019-01-25T01:09:17.006Z,142.97
2019-01-25T01:11:43.659Z,158.07
2019-01-25T01:14:10.157Z,140.30
2019-01-25T01:16:36.634Z,149.07
2019-01-25T01:19:03.811Z,141.88
2019-01-25T01:21:30.382Z,142.40
2019-01-25T01:23:56.833Z,142.00
2019-01-25T01:26:23.375Z,147.98
2019-01-25T01:28:49.885Z,149.83
2019-01-25T01:31:16.342Z,147.47
2019-01-25T01:33:43.207Z,144.13
2019-01-25T01:36:09.785Z,147.73
2019-01-25T01:38:36.242Z,135.80
2019-01-25T01:41:03.020Z,146.02
2019-01-25T01:43:29.533Z,144.28
2019-01-25T01:45:56.121Z,145.75
2019-01-25T01:48:22.668Z,147.60
2019-01-25T01:50:49.143Z,142.83
2019-01-25T01:53:16.144Z,142.00
2019-01-25T01:55:42.684Z,144.50
2019-01-25T01:58:09.221Z,145.90
2019-01-25T02:00:35.764Z,149.10
2019-01-25T02:03:02.304Z,145.70
2019-01-25T02:05:28.949Z,148.67
2019-01-25T02:07:55.569Z,154.13
2019-01-25T02:10:29.283Z,139.70
2019-01-25T02:12:52.377Z,145.95
2019-01-25T02:15:20.383Z,142.90
2019-01-25T02:17:47.340Z,141.12
2019-01-25T02:20:22.223Z,145.97
2019-01-25T02:22:49.163Z,148.47
2019-01-25T02:25:15.873Z,147.28
2019-01-25T02:27:42.370Z,143.17
2019-01-25T02:30:14.698Z,142.43
2019-01-25T02:32:41.341Z,147.93
2019-01-25T02:35:08.230Z,145.23
2019-01-25T02:37:34.772Z,140.50
2019-01-25T02:40:01.299Z,147.05
2019-01-25T02:42:28.083Z,139.05
2019-01-25T02:44:54.584Z,144.30
2019-01-25T02:47:21.123Z,142.53
2019-01-25T02:49:47.691Z,148.70
2019-01-25T02:52:14.225Z,142.55
2019-01-25T02:54:40.734Z,141.55
2019-01-25T02:57:07.376Z,157.62
2019-01-25T02:59:33.920Z,150.10
2019-01-25T03:02:00.429Z,140.23
2019-01-25T03:04:26.976Z,144.77
2019-01-25T03:06:53.599Z,145.37
2019-01-25T03:09:20.163Z,147.50
2019-01-25T03:11:46.776Z,149.02
2019-01-25T03:14:13.334Z,141.22
2019-01-25T03:16:39.842Z,148.20
2019-01-25T03:19:06.671Z,148.60
2019-01-25T03:21:34.263Z,148.93
2019-01-25T03:24:00.807Z,154.80
2019-01-25T03:26:27.335Z,145.70
2019-01-25T03:28:53.921Z,148.20
2019-01-25T03:31:20.556Z,147.55
2019-01-25T03:33:46.984Z,150.40
2019-01-25T03:36:13.474Z,149.35
2019-01-25T03:38:39.973Z,145.17
2019-01-25T03:41:06.519Z,153.90
2019-01-25T03:43:33.104Z,148.37
2019-01-25T03:45:59.610Z,147.90
2019-01-25T03:48:26.135Z,146.47
2019-01-25T03:50:52.568Z,157.40
2019-01-25T03:53:19.001Z,147.07
2019-01-25T03:55:45.541Z,152.55
2019-01-25T03:58:13.028Z,142.60
2019-01-25T04:00:39.755Z,143.02
2019-01-25T04:03:07.303Z,145.53
2019-01-25T04:05:34.754Z,154.23
2019-01-25T04:08:01.508Z,149.55
2019-01-25T04:10:28.888Z,151.63
2019-01-25T04:12:56.397Z,139.88
2019-01-25T04:15:25.128Z,152.80
2019-01-25T04:17:51.938Z,147.57
2019-01-25T04:20:20.092Z,151.07
2019-01-25T04:22:46.647Z,156.28
2019-01-25T04:25:15.516Z,157.40
2019-01-25T04:27:41.945Z,148.65
2019-01-25T04:30:17.383Z,148.02
2019-01-25T04:32:43.891Z,146.28
2019-01-25T04:35:10.591Z,152.55
2019-01-25T04:37:37.116Z,144.02
2019-01-25T04:40:07.393Z,154.17
2019-01-25T04:42:33.863Z,156.75
2019-01-25T04:45:00.340Z,151.53
2019-01-25T04:47:27.265Z,145.45
2019-01-25T04:49:54.300Z,149.07
2019-01-25T04:52:20.689Z,149.87
2019-01-25T04:54:47.170Z,138.45
2019-01-25T04:57:13.760Z,149.57
2019-01-25T04:59:40.324Z,149.90
2019-01-25T05:02:06.749Z,152.40
2019-01-25T05:04:35.192Z,153.07
2019-01-25T05:07:01.679Z,148.40
2019-01-25T05:09:30.926Z,149.85
2019-01-25T05:11:58.320Z,146.50
2019-01-25T05:14:26.866Z,156.75
2019-01-25T05:16:53.340Z,148.20
2019-01-25T05:19:19.896Z,151.70
2019-01-25T05:21:46.623Z,144.80
2019-01-25T05:24:13.130Z,152.27
2019-01-25T05:26:39.802Z,158.37
2019-01-25T05:29:06.327Z,149.50
2019-01-25T05:31:32.830Z,146.80
2019-01-25T05:33:59.561Z,154.15
2019-01-25T05:36:26.318Z,159.22
2019-01-25T05:38:52.992Z,150.90
2019-01-25T05:41:19.569Z,156.65
2019-01-25T05:43:46.059Z,162.77
2019-01-25T05:46:12.598Z,153.65
2019-01-25T05:48:39.248Z,168.50
2019-01-25T05:51:05.751Z,168.77
2019-01-25T05:53:32.307Z,164.05
2019-01-25T05:56:05.262Z,165.95
2019-01-25T05:58:31.826Z,167.18
2019-01-25T06:00:58.634Z,172.40
2019-01-25T06:03:25.252Z,178.55
2019-01-25T06:05:56.046Z,174.97
2019-01-25T06:08:29.091Z,177.70
2019-01-25T06:10:56.681Z,174.42
2019-01-25T06:13:23.169Z,173.72
2019-01-25T06:15:49.672Z,173.28
2019-01-25T06:18:16.235Z,171.65
2019-01-25T06:20:46.532Z,179.15
2019-01-25T06:23:14.088Z,168.32
2019-01-25T06:25:41.635Z,171.27
2019-01-25T06:28:08.367Z,189.40
2019-01-25T06:30:34.948Z,180.87
2019-01-25T06:33:01.671Z,176.10
2019-01-25T06:35:28.499Z,179.72
2019-01-25T06:37:55.015Z,174.32
2019-01-25T06:40:21.689Z,183.05
2019-01-25T06:42:48.191Z,176.18
2019-01-25T06:45:14.919Z,194.43
2019-01-25T06:47:41.390Z,170.35
2019-01-25T06:50:12.080Z,185.37
2019-01-25T06:52:38.799Z,191.35
2019-01-25T06:55:06.722Z,179.12
2019-01-25T06:57:38.212Z,169.95
2019-01-25T07:00:14.377Z,171.98
2019-01-25T07:02:41.203Z,180.63
2019-01-25T07:05:08.268Z,177.90
2019-01-25T07:07:35.163Z,176.65
2019-01-25T07:10:01.899Z,178.97
2019-01-25T07:12:28.419Z,175.97
2019-01-25T07:14:55.138Z,186.60
2019-01-25T07:17:22.467Z,185.52
2019-01-25T07:19:49.318Z,180.63
2019-01-25T07:22:15.809Z,185.10
2019-01-25T07:24:42.374Z,184.97
2019-01-25T07:27:08.880Z,184.75
2019-01-25T07:29:35.422Z,188.27
2019-01-25T07:32:02.435Z,189.20
2019-01-25T07:34:28.885Z,196.78
2019-01-25T07:36:55.329Z,187.45
2019-01-25T07:39:24.129Z,201.35
2019-01-25T07:41:50.549Z,194.13
2019-01-25T07:44:16.952Z,196.78
2019-01-25T07:46:43.454Z,182.15
2019-01-25T07:49:10.065Z,187.57
2019-01-25T07:51:36.507Z,186.30
2019-01-25T07:54:03.141Z,193.85
2019-01-25T07:56:29.665Z,182.37
2019-01-25T07:58:56.218Z,197.70
2019-01-25T08:01:22.992Z,178.78
2019-01-25T08:03:49.450Z,180.75
2019-01-25T08:06:15.928Z,197.17
2019-01-25T08:08:43.638Z,182.53
2019-01-25T08:11:10.097Z,192.40
2019-01-25T08:13:36.543Z,193.65
2019-01-25T08:16:03.265Z,181.12
2019-01-25T08:18:31.022Z,195.45
2019-01-25T08:20:57.719Z,194.10
2019-01-25T08:23:24.283Z,176.10
2019-01-25T08:25:51.053Z,182.17
2019-01-25T08:28:17.501Z,178.65
2019-01-25T08:30:44.027Z,187.22
2019-01-25T08:33:11.536Z,187.00
2019-01-25T08:35:38.021Z,191.40
2019-01-25T08:38:06.391Z,185.55
2019-01-25T08:40:33.877Z,184.85
2019-01-25T08:43:00.276Z,188.10
2019-01-25T08:45:26.718Z,184.35
2019-01-25T08:47:53.213Z,193.00
2019-01-25T08:50:22.885Z,186.80
2019-01-25T08:52:49.462Z,193.52
2019-01-25T08:55:16.107Z,178.60
2019-01-25T08:57:42.593Z,175.42
2019-01-25T09:00:20.091Z,194.37
2019-01-25T09:02:47.615Z,195.03
2019-01-25T09:05:15.039Z,183.00
2019-01-25T09:07:41.578Z,186.47
2019-01-25T09:10:11.959Z,208.15
2019-01-25T09:12:38.369Z,205.80
2019-01-25T09:15:08.495Z,189.55
2019-01-25T09:17:34.916Z,206.28
2019-01-25T09:20:01.739Z,192.98
2019-01-25T09:22:28.294Z,193.95
2019-01-25T09:24:54.806Z,174.77
2019-01-25T09:27:21.270Z,189.18
2019-01-25T09:29:47.657Z,189.07
2019-01-25T09:32:14.700Z,197.00
2019-01-25T09:34:41.423Z,191.98
2019-01-25T09:37:08.195Z,197.40
2019-01-25T09:39:34.945Z,185.93
2019-01-25T09:42:01.429Z,195.80
2019-01-25T09:44:27.915Z,178.87
2019-01-25T09:46:54.384Z,180.45
2019-01-25T09:49:20.886Z,191.25
2019-01-25T09:51:47.320Z,173.72
2019-01-25T09:54:13.761Z,188.27
2019-01-25T09:56:40.290Z,187.07
2019-01-25T09:59:06.770Z,181.15
2019-01-25T10:01:33.165Z,197.47
2019-01-25T10:03:59.714Z,182.02
2019-01-25T10:06:26.095Z,183.62
2019-01-25T10:08:52.847Z,171.05
2019-01-25T10:11:19.343Z,171.72
2019-01-25T10:13:46.764Z,173.28
2019-01-25T10:16:13.209Z,198.25
2019-01-25T10:18:39.640Z,175.93
2019-01-25T10:21:05.995Z,187.57
2019-01-25T10:23:32.770Z,180.30
2019-01-25T10:25:59.249Z,177.75
2019-01-25T10:28:25.960Z,181.80
2019-01-25T10:30:52.380Z,189.62
2019-01-25T10:33:18.847Z,183.07
2019-01-25T10:35:45.520Z,182.37
2019-01-25T10:38:12.188Z,184.35
2019-01-25T10:40:38.631Z,178.02
2019-01-25T10:43:05.270Z,183.45
2019-01-25T10:45:37.313Z,189.28
2019-01-25T10:48:05.152Z,191.88
2019-01-25T10:50:31.653Z,179.85
2019-01-25T10:52:59.110Z,182.93
2019-01-25T10:55:25.507Z,190.57
2019-01-25T10:57:52.251Z,203.12
2019-01-25T11:00:22.487Z,179.65
2019-01-25T11:02:49.336Z,170.65
2019-01-25T11:05:18.523Z,165.28
2019-01-25T11:07:45.230Z,170.55
2019-01-25T11:10:12.092Z,164.03
2019-01-25T11:12:38.675Z,181.55
2019-01-25T11:15:11.651Z,172.47
2019-01-25T11:17:38.109Z,190.55
2019-01-25T11:20:11.450Z,173.53
2019-01-25T11:22:38.139Z,173.17
2019-01-25T11:25:08.606Z,189.30
2019-01-25T11:27:35.337Z,175.75
2019-01-25T11:30:02.153Z,179.35
2019-01-25T11:32:28.548Z,168.72
2019-01-25T11:34:55.254Z,174.70
2019-01-25T11:37:21.748Z,167.22
2019-01-25T11:39:49.368Z,149.23
2019-01-25T11:42:15.826Z,145.22
2019-01-25T11:44:42.283Z,152.02
2019-01-25T11:47:08.997Z,144.37
2019-01-25T11:49:35.447Z,139.90
2019-01-25T11:52:01.889Z,148.93
2019-01-25T11:54:28.262Z,136.77
2019-01-25T11:56:58.801Z,152.38
2019-01-25T11:59:25.537Z,127.22
2019-01-25T12:01:52.269Z,135.35
2019-01-25T12:04:19.687Z,140.03
2019-01-25T12:06:46.096Z,133.50
2019-01-25T12:09:12.558Z,143.10
2019-01-25T12:11:39.015Z,138.00
2019-01-25T12:14:06.460Z,142.37
2019-01-25T12:16:32.962Z,154.45
2019-01-25T12:18:59.403Z,139.95
2019-01-25T12:21:25.841Z,140.65
2019-01-25T12:23:52.398Z,141.80
2019-01-25T12:26:18.815Z,147.47
2019-01-25T12:28:46.245Z,137.57
2019-01-25T12:31:12.730Z,139.50
2019-01-25T12:33:39.224Z,138.07
2019-01-25T12:36:05.793Z,127.38
2019-01-25T12:38:32.294Z,132.97
2019-01-25T12:40:58.743Z,136.12
2019-01-25T12:43:25.437Z,134.40
2019-01-25T12:45:51.915Z,125.18
2019-01-25T12:48:18.371Z,123.87
2019-01-25T12:50:49.165Z,130.35
2019-01-25T12:53:16.154Z,134.95
2019-01-25T12:55:42.555Z,128.38
2019-01-25T12:58:09.089Z,136.45
2019-01-25T13:00:35.559Z,126.42
2019-01-25T13:03:03.470Z,126.75
2019-01-25T13:05:30.137Z,132.72
2019-01-25T13:07:56.642Z,129.97
2019-01-25T13:10:24.733Z,130.85
2019-01-25T13:12:51.174Z,126.53
2019-01-25T13:15:17.707Z,135.52
2019-01-25T13:17:44.422Z,126.97
2019-01-25T13:20:28.190Z,132.52
2019-01-25T13:22:54.639Z,127.60
2019-01-25T13:25:21.541Z,121.17
2019-01-25T13:27:48.131Z,125.15
2019-01-25T13:30:22.928Z,138.40
2019-01-25T13:32:49.401Z,134.52
2019-01-25T13:35:16.174Z,140.25
2019-01-25T13:37:42.717Z,134.63
2019-01-25T13:40:12.030Z,136.55
2019-01-25T13:42:38.615Z,137.22
2019-01-25T13:45:08.409Z,134.18
2019-01-25T13:47:34.928Z,133.70
2019-01-25T13:50:01.651Z,134.18
2019-01-25T13:52:28.089Z,127.12
2019-01-25T13:54:54.737Z,136.45
2019-01-25T13:57:21.163Z,136.52
2019-01-25T13:59:47.622Z,135.82
2019-01-25T14:02:14.286Z,130.07
2019-01-25T14:04:40.691Z,140.30
2019-01-25T14:07:07.090Z,139.40
2019-01-25T14:09:33.540Z,143.80
2019-01-25T14:11:59.971Z,130.57
2019-01-25T14:14:26.403Z,135.68
2019-01-25T14:16:53.122Z,144.75
2019-01-25T14:19:19.568Z,137.60
2019-01-25T14:21:47.133Z,137.68
2019-01-25T14:24:16.609Z,140.95
2019-01-25T14:26:42.319Z,136.10
2019-01-25T14:29:08.813Z,125.07
2019-01-25T14:31:35.202Z,127.40
2019-01-25T14:34:01.656Z,134.80
2019-01-25T14:36:28.098Z,132.95
2019-01-25T14:38:54.535Z,131.43
2019-01-25T14:41:21.152Z,134.10
2019-01-25T14:43:54.261Z,126.53
2019-01-25T14:46:16.383Z,122.28
2019-01-25T14:48:42.817Z,126.10
2019-01-25T14:51:09.240Z,127.75
2019-01-25T14:53:35.686Z,125.45
2019-01-25T14:56:02.504Z,132.35
2019-01-25T14:58:28.998Z,126.35
2019-01-25T15:00:55.468Z,139.43
2019-01-25T15:03:21.952Z,134.25
2019-01-25T15:05:48.721Z,123.47
2019-01-25T15:08:15.239Z,126.53
2019-01-25T15:10:41.725Z,127.95
2019-01-25T15:13:09.225Z,126.30
2019-01-25T15:15:36.001Z,126.27
2019-01-25T15:18:03.984Z,122.47
2019-01-25T15:20:30.450Z,125.05
2019-01-25T15:22:58.247Z,129.60
2019-01-25T15:25:24.928Z,128.40
2019-01-25T15:27:51.370Z,137.12
2019-01-25T15:30:20.423Z,120.10
2019-01-25T15:32:47.208Z,128.80
2019-01-25T15:35:15.363Z,129.18
2019-01-25T15:37:41.831Z,129.72
2019-01-25T15:40:11.881Z,140.62
2019-01-25T15:42:38.798Z,129.55
2019-01-25T15:45:08.881Z,133.45
2019-01-25T15:47:35.354Z,135.10
2019-01-25T15:50:05.889Z,125.55
2019-01-25T15:52:32.509Z,133.60
2019-01-25T15:54:59.158Z,131.00
2019-01-25T15:57:25.834Z,131.12
2019-01-25T15:59:52.320Z,135.80
2019-01-25T16:02:19.019Z,131.65
2019-01-25T16:04:45.498Z,137.55
2019-01-25T16:07:11.974Z,132.22
2019-01-25T16:09:38.366Z,136.45
2019-01-25T16:12:04.779Z,134.20
2019-01-25T16:14:31.233Z,132.07
2019-01-25T16:16:57.679Z,134.18
2019-01-25T16:19:24.098Z,132.10
2019-01-25T16:21:50.544Z,130.85
2019-01-25T16:24:16.938Z,132.30
2019-01-25T16:26:44.636Z,133.55
2019-01-25T16:29:11.032Z,135.95
2019-01-25T16:31:37.492Z,133.80
2019-01-25T16:34:03.975Z,138.85
2019-01-25T16:36:30.467Z,133.95
2019-01-25T16:38:57.150Z,133.37
2019-01-25T16:41:23.875Z,133.65
2019-01-25T16:43:50.384Z,133.22
2019-01-25T16:46:16.871Z,134.40
2019-01-25T16:48:43.355Z,125.82
2019-01-25T16:51:09.770Z,131.43
2019-01-25T16:53:36.194Z,129.63
2019-01-25T16:56:02.850Z,135.30
2019-01-25T16:58:30.281Z,134.63
2019-01-25T17:00:56.819Z,134.25
2019-01-25T17:03:23.264Z,134.47
2019-01-25T17:05:49.910Z,126.95
2019-01-25T17:08:16.433Z,129.93
2019-01-25T17:10:42.870Z,138.47
2019-01-25T17:13:09.405Z,131.60
2019-01-25T17:15:35.914Z,141.32
2019-01-25T17:18:03.380Z,126.80
2019-01-25T17:20:30.098Z,142.87
2019-01-25T17:22:57.605Z,139.35
2019-01-25T17:25:24.190Z,133.40
2019-01-25T17:27:50.937Z,131.20
2019-01-25T17:30:25.039Z,131.63
2019-01-25T17:32:52.929Z,133.00
2019-01-25T17:35:20.894Z,137.37
2019-01-25T17:37:47.595Z,125.42
2019-01-25T17:40:20.449Z,134.50
2019-01-25T17:42:46.888Z,136.22
2019-01-25T17:45:14.272Z,131.85
2019-01-25T17:47:41.008Z,137.68
2019-01-25T17:50:10.303Z,134.47
2019-01-25T17:52:36.847Z,132.47
2019-01-25T17:55:06.686Z,137.32
2019-01-25T17:57:33.469Z,135.27
2019-01-25T17:59:59.960Z,131.80
2019-01-25T18:02:26.727Z,132.00
2019-01-25T18:04:53.179Z,128.75
2019-01-25T18:07:19.665Z,131.37
2019-01-25T18:09:46.137Z,140.52
2019-01-25T18:12:12.586Z,134.85
2019-01-25T18:14:39.026Z,142.70
2019-01-25T18:17:06.471Z,141.60
2019-01-25T18:19:33.012Z,134.20
2019-01-25T18:21:59.437Z,139.47
2019-01-25T18:24:25.874Z,135.80
2019-01-25T18:26:52.337Z,134.55
2019-01-25T18:29:18.825Z,140.50
2019-01-25T18:31:45.286Z,136.20
2019-01-25T18:34:11.691Z,141.70
2019-01-25T18:36:38.182Z,142.07
2019-01-25T18:39:06.183Z,136.37
2019-01-25T18:41:32.926Z,135.87
2019-01-25T18:43:59.657Z,144.82
2019-01-25T18:46:27.168Z,127.92
2019-01-25T18:48:53.592Z,139.37
2019-01-25T18:51:19.996Z,142.35
2019-01-25T18:53:46.582Z,137.50
2019-01-25T18:56:12.968Z,138.97
2019-01-25T18:58:39.642Z,147.47
2019-01-25T19:01:06.763Z,139.73
2019-01-25T19:03:33.239Z,152.10
2019-01-25T19:05:59.753Z,142.93
2019-01-25T19:08:26.191Z,137.75
2019-01-25T19:10:52.680Z,135.15
2019-01-25T19:13:19.122Z,144.53
2019-01-25T19:15:45.581Z,142.75
2019-01-25T19:18:12.183Z,139.40
2019-01-25T19:20:38.659Z,142.65
2019-01-25T19:23:06.140Z,144.05
2019-01-25T19:25:32.743Z,141.18
2019-01-25T19:27:59.194Z,148.28
2019-01-25T19:30:32.367Z,140.47
2019-01-25T19:32:59.433Z,151.18
2019-01-25T19:35:26.037Z,136.45
2019-01-25T19:37:52.487Z,140.85
2019-01-25T19:40:21.718Z,140.22
2019-01-25T19:42:48.573Z,146.95
2019-01-25T19:45:15.258Z,145.30
2019-01-25T19:47:41.906Z,146.72
2019-01-25T19:50:14.155Z,150.53
2019-01-25T19:52:40.713Z,141.50
2019-01-25T19:55:16.462Z,147.40
2019-01-25T19:57:44.496Z,156.55
2019-01-25T20:00:14.772Z,148.43
2019-01-25T20:02:41.662Z,143.90
2019-01-25T20:05:12.346Z,140.82
2019-01-25T20:07:38.886Z,152.30
2019-01-25T20:10:09.576Z,151.07
2019-01-25T20:12:36.292Z,147.37
2019-01-25T20:15:06.889Z,142.98
2019-01-25T20:17:33.510Z,149.07
2019-01-25T20:19:59.944Z,149.02
2019-01-25T20:22:26.357Z,143.00
2019-01-25T20:24:52.813Z,147.17
2019-01-25T20:27:19.350Z,143.28
2019-01-25T20:29:46.623Z,143.28
2019-01-25T20:32:13.022Z,149.87
2019-01-25T20:34:39.472Z,141.32
2019-01-25T20:37:06.006Z,149.62
2019-01-25T20:39:32.415Z,142.72
2019-01-25T20:41:58.876Z,144.28
2019-01-25T20:44:26.558Z,142.62
2019-01-25T20:46:53.067Z,149.97
2019-01-25T20:49:19.458Z,147.78
2019-01-25T20:51:46.397Z,148.10
2019-01-25T20:54:12.984Z,147.10
2019-01-25T20:56:42.092Z,155.50
2019-01-25T20:59:08.498Z,153.23
2019-01-25T21:01:34.992Z,146.37
2019-01-25T21:04:01.744Z,141.82
2019-01-25T21:06:28.195Z,151.00
2019-01-25T21:08:54.791Z,157.18
2019-01-25T21:11:21.281Z,148.10
2019-01-25T21:13:47.701Z,146.28
2019-01-25T21:16:14.132Z,153.82
2019-01-25T21:18:40.525Z,158.50
2019-01-25T21:21:06.943Z,173.50
2019-01-25T21:23:33.332Z,142.95
2019-01-25T21:25:59.764Z,156.50
2019-01-25T21:28:26.239Z,151.20
2019-01-25T21:30:52.740Z,143.07
2019-01-25T21:33:19.185Z,161.40
2019-01-25T21:35:45.635Z,147.37
2019-01-25T21:38:12.028Z,155.67
2019-01-25T21:40:38.486Z,158.85
2019-01-25T21:43:05.164Z,158.30
2019-01-25T21:45:32.846Z,171.68
2019-01-25T21:48:00.186Z,171.90
2019-01-25T21:50:29.482Z,163.43
2019-01-25T21:53:02.748Z,164.10
2019-01-25T21:55:29.266Z,169.27
2019-01-25T21:57:55.698Z,159.60
2019-01-25T22:00:25.455Z,155.95
2019-01-25T22:02:51.994Z,162.43
2019-01-25T22:05:19.304Z,166.25
2019-01-25T22:07:45.728Z,162.80
2019-01-25T22:10:20.490Z,168.20
2019-01-25T22:12:47.015Z,177.57
2019-01-25T22:15:16.118Z,165.55
2019-01-25T22:17:42.871Z,163.03
2019-01-25T22:20:17.804Z,171.20
2019-01-25T22:22:45.095Z,162.00
2019-01-25T22:25:12.087Z,171.20
2019-01-25T22:27:38.843Z,164.13
2019-01-25T22:30:12.008Z,167.22
2019-01-25T22:32:38.562Z,165.40
2019-01-25T22:35:06.931Z,152.23
2019-01-25T22:37:33.341Z,162.93
2019-01-25T22:39:59.862Z,163.17
2019-01-25T22:42:26.562Z,167.05
2019-01-25T22:44:53.033Z,166.20
2019-01-25T22:47:20.475Z,163.00
2019-01-25T22:49:47.132Z,173.63
2019-01-25T22:52:13.540Z,168.33
2019-01-25T22:54:39.999Z,164.80
2019-01-25T22:57:06.646Z,178.87
2019-01-25T22:59:33.060Z,170.85
2019-01-25T23:01:59.478Z,169.62
2019-01-25T23:04:29.678Z,161.47
2019-01-25T23:06:56.461Z,160.00
2019-01-25T23:09:26.162Z,174.07
2019-01-25T23:11:52.554Z,165.77
2019-01-25T23:14:18.933Z,155.53
2019-01-25T23:16:45.268Z,175.07
2019-01-25T23:19:11.768Z,170.23
2019-01-25T23:21:39.152Z,171.60
2019-01-25T23:24:05.526Z,189.43
2019-01-25T23:26:31.927Z,176.20
2019-01-25T23:28:58.313Z,175.00
2019-01-25T23:31:24.801Z,173.30
2019-01-25T23:33:51.454Z,174.67
2019-01-25T23:36:17.963Z,169.97
2019-01-25T23:38:44.609Z,158.97
2019-01-25T23:41:10.998Z,167.53
2019-01-25T23:43:37.393Z,161.87
2019-01-25T23:46:03.912Z,165.10
2019-01-25T23:48:30.279Z,155.97
2019-01-25T23:50:56.688Z,163.37
2019-01-25T23:53:23.070Z,148.03
2019-01-25T23:55:49.542Z,150.37
2019-01-25T23:58:15.968Z,149.40
